Terminal Aerodrome Forecast
Issued by NWS

Home | Current Version | Previous Version | Text Only | Print | Product List | Glossary On
Versions: 1 2 3 4 5 6 7 8 9 10 11 12 13 14 15 16 17 18 19 20 21 22 23 24 25 26 27 28 29 30 31 32 33 34 35 36 37 38
255
FTUS41 KOKX 221725
TAFSWF
TAF
KSWF 221725Z 2218/2324 33005KT P6SM SCT003 BKN020
      TEMPO 2218/2219 BKN003 BKN060
     FM230000 08010KT 5SM BR OVC010
     FM230300 07011G16KT 6SM BR OVC010
     FM231200 07014G22KT 5SM -RAPL BR OVC010
     FM231500 07015G25KT 3SM RAPL BR OVC010
     FM232100 06022G35KT 4SM +RAPL BR OVC015
      AMD NOT SKED=

USA.gov is the U.S. government's official web portal to all federal, state and local government web resources and services.